Time;durP1;ratioP1;P1;durP2;ratioP2;P2;SDS_P1;SDS_P2;PMS_P1;PMS_P2;Temp;Humidity;BMP_temperature;BMP_pressure;BME280_temperature;BME280_humidity;BME280_pressure;Samples;Min_cycle;Max_cycle;Signal;HPM_P1;HPM_P2
2022/09/19 00:00:37;;;;;;;;;;;12.00;99.90;;;;;;5108171;28;19926;-74
2022/09/19 00:03:03;;;;;;;;;;;12.00;99.90;;;;;;5085373;28;20001;-73
2022/09/19 00:05:29;;;;;;;;;;;12.10;99.90;;;;;;5100041;28;19965;-73
2022/09/19 00:07:54;;;;;;;;;;;12.20;99.90;;;;;;5099934;28;19919;-74
2022/09/19 00:10:20;;;;;;;;;;;12.20;99.90;;;;;;5095155;28;19916;-72
2022/09/19 00:12:45;;;;;;;;;;;12.10;99.90;;;;;;5101253;28;19966;-73
2022/09/19 00:15:12;;;;;;;;;;;12.20;99.90;;;;;;5101257;28;19916;-72
2022/09/19 00:17:37;;;;;;;;;;;12.10;99.90;;;;;;5077571;28;20230;-73
2022/09/19 00:20:03;;;;;;;;;;;12.10;99.90;;;;;;5099125;28;19920;-73
2022/09/19 00:22:29;;;;;;;;;;;12.10;99.90;;;;;;5090360;28;20018;-73
2022/09/19 00:24:55;;;;;;;;;;;12.10;99.90;;;;;;5083961;28;19908;-72
2022/09/19 00:27:25;;;;;;;;;;;12.10;99.90;;;;;;5101424;28;19927;-73
2022/09/19 00:29:52;;;;;;;;;;;12.10;99.90;;;;;;5078424;28;19912;-73
2022/09/19 00:32:17;;;;;;;;;;;12.10;99.90;;;;;;5077589;28;20002;-73
2022/09/19 00:34:44;;;;;;;;;;;12.10;99.90;;;;;;5097123;28;20124;-71
2022/09/19 00:37:10;;;;;;;;;;;12.10;99.90;;;;;;5096520;28;19912;-73
2022/09/19 00:39:36;;;;;;;;;;;12.00;99.90;;;;;;5081921;28;19912;-72
2022/09/19 00:42:01;;;;;;;;;;;12.00;99.90;;;;;;5096549;28;20609;-71
2022/09/19 00:44:27;;;;;;;;;;;12.00;99.90;;;;;;5096870;28;20250;-72
2022/09/19 00:46:52;;;;;;;;;;;12.00;99.90;;;;;;5096600;28;19915;-72
2022/09/19 00:49:19;;;;;;;;;;;12.00;99.90;;;;;;5096172;28;19930;-72
2022/09/19 00:51:49;;;;;;;;;;;12.00;99.90;;;;;;5077906;28;20370;-74
2022/09/19 00:54:28;;;;;;;;;;;11.90;99.90;;;;;;5077834;28;19912;-73
2022/09/19 00:56:54;;;;;;;;;;;11.80;99.90;;;;;;5103826;28;19908;-74
2022/09/19 00:59:21;;;;;;;;;;;11.80;99.90;;;;;;5101861;28;20007;-72
2022/09/19 01:01:48;;;;;;;;;;;11.70;99.90;;;;;;5098235;28;20327;-74
2022/09/19 01:04:19;;;;;;;;;;;11.70;99.90;;;;;;5106705;28;19930;-74
2022/09/19 01:06:45;;;;;;;;;;;11.60;99.90;;;;;;5099492;28;20007;-72
2022/09/19 01:09:17;;;;;;;;;;;11.60;99.90;;;;;;5107767;28;20261;-73
2022/09/19 01:12:09;;;;;;;;;;;11.60;99.90;;;;;;5095349;28;19970;-72
2022/09/19 01:14:53;;;;;;;;;;;11.60;99.90;;;;;;5113366;27;19908;-72
2022/09/19 01:17:46;;;;;;;;;;;11.50;99.90;;;;;;5103844;27;20302;-74
2022/09/19 01:20:20;;;;;;;;;;;11.40;99.90;;;;;;5105230;28;19946;-73
2022/09/19 01:23:12;;;;;;;;;;;11.40;99.90;;;;;;5113050;28;19923;-73
2022/09/19 01:25:45;;;;;;;;;;;11.40;99.90;;;;;;5099998;28;19921;-73
2022/09/19 01:28:34;;;;;;;;;;;11.50;99.90;;;;;;5085737;28;19920;-73
2022/09/19 01:31:17;;;;;;;;;;;11.60;99.90;;;;;;5094520;28;20230;-73
2022/09/19 01:34:09;;;;;;;;;;;11.70;99.90;;;;;;5112230;28;19916;-72
2022/09/19 01:36:43;;;;;;;;;;;11.80;99.90;;;;;;5048622;28;19913;-73
2022/09/19 01:39:09;;;;;;;;;;;11.80;99.90;;;;;;5036887;28;20375;-72
2022/09/19 01:41:35;;;;;;;;;;;11.80;99.90;;;;;;5034110;28;19921;-73
2022/09/19 01:44:08;;;;;;;;;;;11.80;99.90;;;;;;5024466;28;20514;-72
2022/09/19 01:46:39;;;;;;;;;;;11.80;99.90;;;;;;5044839;28;19913;-72
2022/09/19 01:49:12;;;;;;;;;;;11.90;99.90;;;;;;5050766;28;20282;-72
2022/09/19 01:51:43;;;;;;;;;;;11.80;99.90;;;;;;5051343;28;19924;-73
2022/09/19 01:54:08;;;;;;;;;;;11.90;99.90;;;;;;5039643;28;19909;-73
2022/09/19 01:56:39;;;;;;;;;;;11.90;99.90;;;;;;5029832;28;19913;-72
2022/09/19 01:59:20;;;;;;;;;;;11.90;99.90;;;;;;5049685;28;19992;-75
2022/09/19 02:01:46;;;;;;;;;;;11.80;99.90;;;;;;5034327;28;19921;-73
2022/09/19 02:04:11;;;;;;;;;;;11.80;99.90;;;;;;5040921;28;19967;-72
2022/09/19 02:06:37;;;;;;;;;;;11.80;99.90;;;;;;5038815;28;20315;-73
2022/09/19 02:09:10;;;;;;;;;;;11.80;99.90;;;;;;5047573;28;20011;-74
2022/09/19 02:11:35;;;;;;;;;;;11.80;99.90;;;;;;5048599;28;20451;-75
2022/09/19 02:14:07;;;;;;;;;;;11.80;99.90;;;;;;5068591;28;19916;-74
2022/09/19 02:16:35;;;;;;;;;;;12.00;99.90;;;;;;5100711;28;19919;-73
2022/09/19 02:19:31;;;;;;;;;;;12.10;99.90;;;;;;5096489;28;20051;-73
2022/09/19 02:22:00;;;;;;;;;;;12.20;99.90;;;;;;5047060;28;19963;-72
2022/09/19 02:24:27;;;;;;;;;;;12.20;99.90;;;;;;5033631;28;19960;-73
2022/09/19 02:26:55;;;;;;;;;;;12.20;99.90;;;;;;5051011;28;19913;-73
2022/09/19 02:29:25;;;;;;;;;;;12.30;99.90;;;;;;5050203;28;19921;-74
2022/09/19 02:31:51;;;;;;;;;;;12.30;99.90;;;;;;5049912;28;19970;-72
2022/09/19 02:34:16;;;;;;;;;;;12.40;99.90;;;;;;5046156;28;19945;-72
2022/09/19 02:37:18;;;;;;;;;;;12.40;99.90;;;;;;5044130;28;20011;-72
2022/09/19 02:39:57;;;;;;;;;;;12.40;99.90;;;;;;5027157;28;20025;-73
2022/09/19 02:42:46;;;;;;;;;;;12.40;99.90;;;;;;5022293;28;20111;-72
2022/09/19 02:45:32;;;;;;;;;;;12.30;99.90;;;;;;5025817;28;19916;-73
2022/09/19 02:48:03;;;;;;;;;;;12.30;99.90;;;;;;5017453;28;19920;-73
2022/09/19 02:50:44;;;;;;;;;;;12.30;99.90;;;;;;5015823;28;19914;-72
2022/09/19 02:53:16;;;;;;;;;;;12.20;99.90;;;;;;5023206;28;19964;-73
2022/09/19 02:55:49;;;;;;;;;;;12.20;99.90;;;;;;5008301;28;19917;-73
2022/09/19 02:58:16;;;;;;;;;;;12.20;99.90;;;;;;5051324;28;19912;-73
2022/09/19 03:00:45;;;;;;;;;;;12.30;99.90;;;;;;5082006;28;20295;-73
2022/09/19 03:05:58;;;;;;;;;;;12.20;99.90;;;;;;5081386;28;19970;-73
2022/09/19 03:08:25;;;;;;;;;;;12.20;99.90;;;;;;5083305;28;19918;-73
2022/09/19 03:10:53;;;;;;;;;;;12.20;99.90;;;;;;5076965;28;19923;-73
2022/09/19 03:13:22;;;;;;;;;;;12.20;99.90;;;;;;5074370;28;20208;-73
2022/09/19 03:15:51;;;;;;;;;;;12.20;99.90;;;;;;5098055;28;19965;-73
2022/09/19 03:18:17;;;;;;;;;;;12.10;99.90;;;;;;5084719;28;20329;-73
2022/09/19 03:20:51;;;;;;;;;;;12.20;99.90;;;;;;5109347;28;19954;-73
2022/09/19 03:23:19;;;;;;;;;;;12.10;99.90;;;;;;5113620;28;19919;-72
2022/09/19 03:25:45;;;;;;;;;;;12.20;99.90;;;;;;5104548;28;20321;-72
2022/09/19 03:28:10;;;;;;;;;;;12.20;99.90;;;;;;5081292;28;19919;-73
2022/09/19 03:30:36;;;;;;;;;;;12.20;99.90;;;;;;5111265;28;19916;-72
2022/09/19 03:33:01;;;;;;;;;;;12.30;99.90;;;;;;5114120;28;20006;-74
2022/09/19 03:35:27;;;;;;;;;;;12.30;99.90;;;;;;5106199;28;19915;-72
2022/09/19 03:37:53;;;;;;;;;;;12.30;99.90;;;;;;5117152;28;19918;-73
2022/09/19 03:40:19;;;;;;;;;;;12.30;99.90;;;;;;5098511;28;19911;-73
2022/09/19 03:42:46;;;;;;;;;;;12.30;99.90;;;;;;5102508;28;20477;-72
2022/09/19 03:45:11;;;;;;;;;;;12.30;99.90;;;;;;5111079;28;19922;-72
2022/09/19 03:47:37;;;;;;;;;;;12.20;99.90;;;;;;5091410;28;19928;-74
2022/09/19 03:50:03;;;;;;;;;;;12.20;99.90;;;;;;5098697;28;19955;-73
2022/09/19 03:52:29;;;;;;;;;;;12.20;99.90;;;;;;5112844;28;19916;-73
2022/09/19 03:54:54;;;;;;;;;;;12.10;99.90;;;;;;5107035;28;19907;-72
2022/09/19 03:57:20;;;;;;;;;;;12.00;99.90;;;;;;5115198;28;20322;-73
2022/09/19 03:59:46;;;;;;;;;;;12.00;99.90;;;;;;5105462;28;20263;-73
2022/09/19 04:02:11;;;;;;;;;;;12.00;99.90;;;;;;5110286;28;19984;-73
2022/09/19 04:04:37;;;;;;;;;;;11.90;99.90;;;;;;5086858;28;20266;-73
2022/09/19 04:07:03;;;;;;;;;;;11.90;99.90;;;;;;5104642;28;20207;-74
2022/09/19 04:09:28;;;;;;;;;;;11.90;99.90;;;;;;5102888;28;19961;-74
2022/09/19 04:11:56;;;;;;;;;;;11.90;99.90;;;;;;5118651;27;19908;-73
2022/09/19 04:14:22;;;;;;;;;;;11.90;99.90;;;;;;5099417;28;20437;-74
2022/09/19 04:16:47;;;;;;;;;;;11.90;99.90;;;;;;5117538;27;19919;-71
2022/09/19 04:19:13;;;;;;;;;;;11.90;99.90;;;;;;5112789;28;19916;-74
2022/09/19 04:21:46;;;;;;;;;;;11.90;99.90;;;;;;5120796;27;20278;-74
2022/09/19 04:24:12;;;;;;;;;;;11.90;99.90;;;;;;5113446;28;19918;-74
2022/09/19 04:26:38;;;;;;;;;;;11.90;99.90;;;;;;5115635;28;19919;-74
2022/09/19 04:29:06;;;;;;;;;;;11.90;99.90;;;;;;5106906;28;19908;-74
2022/09/19 04:31:37;;;;;;;;;;;11.80;99.90;;;;;;5098930;28;19959;-74
2022/09/19 04:34:03;;;;;;;;;;;11.90;99.90;;;;;;5116430;28;19912;-74
2022/09/19 04:36:31;;;;;;;;;;;11.80;99.90;;;;;;5097317;28;20006;-74
2022/09/19 04:38:58;;;;;;;;;;;11.80;99.90;;;;;;5108069;28;19955;-75
2022/09/19 04:41:24;;;;;;;;;;;11.80;99.90;;;;;;5084606;28;19908;-74
2022/09/19 04:43:50;;;;;;;;;;;11.80;99.90;;;;;;5110007;28;19923;-73
2022/09/19 04:46:20;;;;;;;;;;;11.90;99.90;;;;;;5107281;28;19918;-75
2022/09/19 04:48:47;;;;;;;;;;;11.90;99.90;;;;;;5098753;28;19931;-74
2022/09/19 04:51:12;;;;;;;;;;;11.90;99.90;;;;;;5112858;28;19908;-74
2022/09/19 04:53:38;;;;;;;;;;;11.90;99.90;;;;;;5105212;28;19916;-74
2022/09/19 04:56:04;;;;;;;;;;;12.00;99.90;;;;;;5108399;28;19920;-73
2022/09/19 04:58:29;;;;;;;;;;;11.90;99.90;;;;;;5106280;28;20375;-74
2022/09/19 05:00:55;;;;;;;;;;;11.90;99.90;;;;;;5108844;28;19912;-73
2022/09/19 05:03:25;;;;;;;;;;;12.00;99.90;;;;;;5091492;28;19916;-73
2022/09/19 05:05:51;;;;;;;;;;;12.00;99.90;;;;;;5077936;28;19923;-72
2022/09/19 05:08:24;;;;;;;;;;;12.10;99.90;;;;;;5096167;28;19916;-72
2022/09/19 05:10:51;;;;;;;;;;;12.10;99.90;;;;;;5091068;28;20287;-73
2022/09/19 05:13:17;;;;;;;;;;;12.20;99.90;;;;;;5102937;28;19916;-73
2022/09/19 05:15:45;;;;;;;;;;;12.20;99.90;;;;;;5104574;28;19915;-72
2022/09/19 05:18:11;;;;;;;;;;;12.20;99.90;;;;;;5098373;28;19918;-74
2022/09/19 05:20:37;;;;;;;;;;;12.20;99.90;;;;;;5098226;28;20010;-73
2022/09/19 05:23:03;;;;;;;;;;;12.20;99.90;;;;;;5092750;28;19980;-73
2022/09/19 05:25:30;;;;;;;;;;;12.10;99.90;;;;;;5104190;28;19911;-76
2022/09/19 05:27:56;;;;;;;;;;;12.10;99.90;;;;;;5098134;28;20306;-72
2022/09/19 05:30:24;;;;;;;;;;;12.20;99.90;;;;;;5097084;28;19912;-73
2022/09/19 05:32:52;;;;;;;;;;;12.20;99.90;;;;;;5115864;28;19937;-73
2022/09/19 05:35:18;;;;;;;;;;;12.20;99.90;;;;;;5096171;28;19923;-75
2022/09/19 05:37:46;;;;;;;;;;;12.20;99.90;;;;;;5116346;28;20273;-72
2022/09/19 05:40:11;;;;;;;;;;;12.20;99.90;;;;;;5116153;28;20002;-72
2022/09/19 05:42:44;;;;;;;;;;;12.20;99.90;;;;;;5084578;28;20010;-73
2022/09/19 05:45:10;;;;;;;;;;;12.30;99.90;;;;;;5103511;28;20318;-74
2022/09/19 05:47:39;;;;;;;;;;;12.40;99.90;;;;;;5109428;28;19916;-73
2022/09/19 05:50:07;;;;;;;;;;;12.40;99.90;;;;;;5096658;28;20299;-74
2022/09/19 05:55:17;;;;;;;;;;;12.50;99.90;;;;;;5115823;28;19996;-74
2022/09/19 05:57:48;;;;;;;;;;;12.60;99.90;;;;;;5090770;28;20324;-74
2022/09/19 06:00:14;;;;;;;;;;;12.60;99.90;;;;;;5105008;28;19999;-74
2022/09/19 06:02:39;;;;;;;;;;;12.60;99.90;;;;;;5101171;28;20049;-73
2022/09/19 06:05:05;;;;;;;;;;;12.70;99.90;;;;;;5104653;28;19912;-75
2022/09/19 06:07:31;;;;;;;;;;;12.70;99.90;;;;;;5088439;28;19916;-75
2022/09/19 06:09:56;;;;;;;;;;;12.80;99.90;;;;;;5093084;28;19915;-74
2022/09/19 06:12:22;;;;;;;;;;;12.90;99.90;;;;;;5074732;28;19995;-74
2022/09/19 06:14:47;;;;;;;;;;;12.90;99.90;;;;;;5103810;28;19920;-73
2022/09/19 06:17:15;;;;;;;;;;;13.00;99.90;;;;;;5106365;28;19912;-74
2022/09/19 06:19:41;;;;;;;;;;;13.00;99.90;;;;;;5094300;28;19923;-74
2022/09/19 06:22:06;;;;;;;;;;;13.10;99.90;;;;;;5083839;28;20346;-73
2022/09/19 06:24:32;;;;;;;;;;;13.10;99.90;;;;;;5108473;28;19952;-73
2022/09/19 06:26:58;;;;;;;;;;;13.00;99.90;;;;;;5102641;28;19950;-72
2022/09/19 06:29:23;;;;;;;;;;;12.90;99.90;;;;;;5107415;28;19916;-74
2022/09/19 06:31:49;;;;;;;;;;;12.90;99.90;;;;;;5081472;28;19969;-73
2022/09/19 06:34:14;;;;;;;;;;;12.80;99.90;;;;;;5108044;28;20282;-72
2022/09/19 06:36:44;;;;;;;;;;;12.80;99.90;;;;;;5089787;28;19919;-73
2022/09/19 06:39:10;;;;;;;;;;;12.70;99.90;;;;;;5103950;28;19986;-72
2022/09/19 06:41:36;;;;;;;;;;;12.70;99.90;;;;;;5092095;28;20311;-74
2022/09/19 06:44:02;;;;;;;;;;;12.70;99.90;;;;;;5107723;28;20352;-72
2022/09/19 06:46:27;;;;;;;;;;;12.70;99.90;;;;;;5105041;28;20032;-72
2022/09/19 06:48:53;;;;;;;;;;;12.70;99.90;;;;;;5103764;28;20303;-73
2022/09/19 06:51:19;;;;;;;;;;;12.80;99.90;;;;;;5109893;27;19912;-73
2022/09/19 06:53:47;;;;;;;;;;;12.70;99.90;;;;;;5104214;28;19940;-73
2022/09/19 06:56:12;;;;;;;;;;;12.80;99.90;;;;;;5104670;27;20319;-75
2022/09/19 06:58:38;;;;;;;;;;;12.80;99.90;;;;;;5108472;28;19994;-73
2022/09/19 07:01:04;;;;;;;;;;;12.90;99.90;;;;;;5108799;28;19919;-73
2022/09/19 07:03:29;;;;;;;;;;;12.90;99.90;;;;;;5103619;28;19918;-74
2022/09/19 07:05:56;;;;;;;;;;;12.90;99.90;;;;;;5102796;28;19923;-74
2022/09/19 07:08:22;;;;;;;;;;;12.90;99.90;;;;;;5091882;28;19911;-75
2022/09/19 07:10:47;;;;;;;;;;;13.10;99.90;;;;;;5108426;28;19965;-73
2022/09/19 07:13:19;;;;;;;;;;;13.50;99.90;;;;;;5084631;28;19919;-75
2022/09/19 07:15:45;;;;;;;;;;;14.10;99.90;;;;;;5102880;28;19998;-73
2022/09/19 07:18:12;;;;;;;;;;;14.50;99.90;;;;;;5092166;28;19999;-74
2022/09/19 07:20:39;;;;;;;;;;;14.50;99.90;;;;;;5092057;28;20007;-75
2022/09/19 07:23:24;;;;;;;;;;;14.60;99.90;;;;;;5084218;28;20038;-74
2022/09/19 07:25:50;;;;;;;;;;;14.60;99.90;;;;;;5100818;28;19919;-74
2022/09/19 07:28:17;;;;;;;;;;;14.80;99.90;;;;;;5105000;28;19912;-74
2022/09/19 07:30:43;;;;;;;;;;;15.00;99.90;;;;;;5104928;28;19945;-75
2022/09/19 07:33:09;;;;;;;;;;;15.30;99.90;;;;;;5109583;28;19915;-74
2022/09/19 07:35:36;;;;;;;;;;;15.60;99.90;;;;;;5102186;28;20323;-73
2022/09/19 07:38:02;;;;;;;;;;;16.10;99.90;;;;;;5088051;28;20064;-73
2022/09/19 07:40:28;;;;;;;;;;;16.50;99.90;;;;;;5097187;28;19919;-71
2022/09/19 07:43:02;;;;;;;;;;;16.50;99.90;;;;;;5109517;28;19912;-78
2022/09/19 07:45:29;;;;;;;;;;;16.40;99.90;;;;;;5104778;28;19919;-70
2022/09/19 07:47:55;;;;;;;;;;;16.20;99.90;;;;;;5101564;28;19915;-74
2022/09/19 07:50:21;;;;;;;;;;;16.10;99.90;;;;;;5108629;28;19916;-73
2022/09/19 07:52:46;;;;;;;;;;;15.80;99.90;;;;;;5101934;28;19922;-75
2022/09/19 07:55:13;;;;;;;;;;;15.30;99.90;;;;;;5100490;28;20322;-75
2022/09/19 07:57:48;;;;;;;;;;;14.50;99.90;;;;;;5089036;28;19914;-75
2022/09/19 08:00:14;;;;;;;;;;;14.00;99.90;;;;;;5101809;28;19912;-74
2022/09/19 08:02:39;;;;;;;;;;;13.60;99.90;;;;;;5085276;28;20074;-74
2022/09/19 08:05:05;;;;;;;;;;;13.40;99.90;;;;;;5098398;28;19957;-73
2022/09/19 08:07:31;;;;;;;;;;;13.20;99.90;;;;;;5102807;28;19915;-76
2022/09/19 08:09:57;;;;;;;;;;;13.20;99.90;;;;;;5085570;28;19965;-74
2022/09/19 08:12:22;;;;;;;;;;;13.20;99.90;;;;;;5089967;28;19961;-74
2022/09/19 08:14:48;;;;;;;;;;;13.10;99.90;;;;;;5097434;28;19908;-74
2022/09/19 08:17:14;;;;;;;;;;;13.10;99.90;;;;;;5099531;28;19908;-74
2022/09/19 08:19:39;;;;;;;;;;;13.00;99.90;;;;;;5108096;28;19974;-75
2022/09/19 08:22:05;;;;;;;;;;;13.10;99.90;;;;;;5079595;28;22035;-73
2022/09/19 08:24:31;;;;;;;;;;;13.20;99.90;;;;;;5079647;28;19927;-74
2022/09/19 08:26:59;;;;;;;;;;;13.30;99.90;;;;;;5080653;28;20444;-72
2022/09/19 08:29:26;;;;;;;;;;;13.60;99.90;;;;;;5096754;28;20219;-73
2022/09/19 08:31:52;;;;;;;;;;;14.10;99.90;;;;;;5106867;28;20230;-73
2022/09/19 08:34:17;;;;;;;;;;;14.60;99.90;;;;;;5098616;28;19908;-74
2022/09/19 08:36:43;;;;;;;;;;;14.90;99.90;;;;;;5097206;28;19919;-71
2022/09/19 08:39:08;;;;;;;;;;;15.30;99.90;;;;;;5100821;28;19908;-72
2022/09/19 08:41:56;;;;;;;;;;;15.80;99.90;;;;;;5096479;28;19939;-72
2022/09/19 08:44:41;;;;;;;;;;;16.00;99.90;;;;;;5078191;28;19916;-72
2022/09/19 08:47:10;;;;;;;;;;;15.80;99.90;;;;;;5103363;28;19912;-73
2022/09/19 08:49:41;;;;;;;;;;;15.70;99.90;;;;;;5101797;28;19912;-72
2022/09/19 08:52:07;;;;;;;;;;;15.50;99.90;;;;;;5086985;28;19923;-73
2022/09/19 08:54:40;;;;;;;;;;;15.40;99.90;;;;;;5096231;28;19908;-73
2022/09/19 08:57:12;;;;;;;;;;;15.20;99.90;;;;;;5101798;28;19997;-75
2022/09/19 08:59:39;;;;;;;;;;;15.10;99.90;;;;;;5096011;28;19909;-72
2022/09/19 09:02:26;;;;;;;;;;;15.30;99.90;;;;;;5081185;28;19984;-72
2022/09/19 09:04:54;;;;;;;;;;;15.70;99.90;;;;;;5069110;28;19916;-72
2022/09/19 09:07:46;;;;;;;;;;;16.60;99.90;;;;;;5095751;28;19908;-73
2022/09/19 09:10:14;;;;;;;;;;;17.20;99.90;;;;;;5098314;28;19916;-74
2022/09/19 09:12:46;;;;;;;;;;;17.20;99.90;;;;;;5098606;28;19915;-72
2022/09/19 09:15:14;;;;;;;;;;;17.30;99.90;;;;;;5095635;28;19916;-72
2022/09/19 09:17:47;;;;;;;;;;;17.20;99.90;;;;;;5098087;28;20382;-74
2022/09/19 09:20:13;;;;;;;;;;;17.50;99.90;;;;;;5085247;28;19926;-74
2022/09/19 09:22:44;;;;;;;;;;;17.60;99.90;;;;;;5089239;28;19920;-73
2022/09/19 09:25:13;;;;;;;;;;;17.10;99.90;;;;;;5093854;28;19958;-74
2022/09/19 09:27:57;;;;;;;;;;;16.50;99.90;;;;;;5095624;28;19920;-73
2022/09/19 09:30:23;;;;;;;;;;;16.00;99.90;;;;;;5102687;28;19995;-74
2022/09/19 09:32:51;;;;;;;;;;;16.00;99.90;;;;;;5097668;28;20271;-76
2022/09/19 09:35:19;;;;;;;;;;;16.00;99.90;;;;;;5096145;28;19912;-74
2022/09/19 09:37:54;;;;;;;;;;;15.90;99.90;;;;;;5085867;28;19908;-74
2022/09/19 09:43:07;;;;;;;;;;;16.20;99.90;;;;;;5100954;28;19964;-75
2022/09/19 09:45:48;;;;;;;;;;;16.10;99.90;;;;;;5104034;27;20120;-76
2022/09/19 09:48:14;;;;;;;;;;;15.90;99.90;;;;;;5104685;28;20025;-73
2022/09/19 09:51:00;;;;;;;;;;;15.40;99.90;;;;;;5096015;28;19912;-76
2022/09/19 09:53:28;;;;;;;;;;;15.20;99.90;;;;;;5082829;28;19937;-78
2022/09/19 09:58:47;;;;;;;;;;;14.80;99.90;;;;;;5103367;28;20006;-73
2022/09/19 10:04:19;;;;;;;;;;;15.30;99.90;;;;;;5093822;28;20218;-74
2022/09/19 10:10:14;;;;;;;;;;;15.50;99.90;;;;;;5099134;27;20000;-73
2022/09/19 10:12:44;;;;;;;;;;;15.30;99.90;;;;;;5100417;28;19912;-74
2022/09/19 10:15:14;;;;;;;;;;;15.10;99.90;;;;;;5110815;28;19912;-73
2022/09/19 10:17:43;;;;;;;;;;;15.00;99.90;;;;;;5101911;28;19958;-76
2022/09/19 10:20:15;;;;;;;;;;;14.90;99.90;;;;;;5103540;28;19928;-72
2022/09/19 10:22:42;;;;;;;;;;;14.80;99.90;;;;;;5091176;28;20382;-74
2022/09/19 10:25:10;;;;;;;;;;;14.50;99.90;;;;;;5085521;28;19908;-74
2022/09/19 10:27:42;;;;;;;;;;;14.40;99.90;;;;;;5105888;28;19908;-74
2022/09/19 10:30:27;;;;;;;;;;;14.40;99.90;;;;;;5113334;28;20010;-73
2022/09/19 10:32:53;;;;;;;;;;;14.40;99.90;;;;;;5107722;28;19918;-75
2022/09/19 10:35:22;;;;;;;;;;;14.60;99.90;;;;;;5076065;28;19916;-73
2022/09/19 10:37:51;;;;;;;;;;;14.90;99.90;;;;;;5100564;28;19912;-74
2022/09/19 10:40:21;;;;;;;;;;;14.90;99.90;;;;;;5110952;28;19976;-73
2022/09/19 10:42:49;;;;;;;;;;;15.10;99.90;;;;;;5101421;28;19916;-72
2022/09/19 10:45:42;;;;;;;;;;;15.20;99.90;;;;;;5104254;28;19978;-74
2022/09/19 10:48:11;;;;;;;;;;;15.60;99.90;;;;;;5098540;28;19958;-74
2022/09/19 10:50:47;;;;;;;;;;;15.90;99.90;;;;;;5105662;28;19957;-72
2022/09/19 10:53:22;;;;;;;;;;;16.10;99.90;;;;;;5106924;28;19957;-77
2022/09/19 10:55:56;;;;;;;;;;;15.80;99.90;;;;;;5096565;27;20330;-73
2022/09/19 10:58:28;;;;;;;;;;;15.40;99.90;;;;;;5101974;28;19927;-74
2022/09/19 11:01:01;;;;;;;;;;;15.10;99.90;;;;;;5104056;28;19912;-75
2022/09/19 11:03:32;;;;;;;;;;;14.80;99.90;;;;;;5110368;28;19920;-73
2022/09/19 11:06:16;;;;;;;;;;;14.60;99.90;;;;;;5111859;28;19907;-72
2022/09/19 11:08:46;;;;;;;;;;;14.50;99.90;;;;;;5101145;28;19999;-73
2022/09/19 11:14:55;;;;;;;;;;;14.20;99.90;;;;;;5094205;28;19908;-72
2022/09/19 11:17:39;;;;;;;;;;;14.10;99.90;;;;;;5099365;28;19916;-72
2022/09/19 11:20:16;;;;;;;;;;;14.00;99.90;;;;;;5104731;28;20002;-75
2022/09/19 11:22:54;;;;;;;;;;;14.00;99.90;;;;;;5102001;28;19966;-77
2022/09/19 11:25:39;;;;;;;;;;;14.00;99.90;;;;;;5098471;28;19923;-72
2022/09/19 11:28:12;;;;;;;;;;;14.00;99.90;;;;;;5104866;28;20079;-72
2022/09/19 11:31:05;;;;;;;;;;;14.10;99.90;;;;;;5098135;28;19995;-73
2022/09/19 11:33:53;;;;;;;;;;;14.30;99.90;;;;;;5080922;28;19923;-74
2022/09/19 11:36:18;;;;;;;;;;;14.40;99.90;;;;;;5099755;28;20325;-74
2022/09/19 11:39:06;;;;;;;;;;;14.70;99.90;;;;;;5104821;28;19925;-73
2022/09/19 11:41:35;;;;;;;;;;;15.10;99.90;;;;;;5098201;28;20015;-73
2022/09/19 11:44:15;;;;;;;;;;;15.60;99.90;;;;;;5099412;28;20425;-73
2022/09/19 11:46:57;;;;;;;;;;;15.90;99.90;;;;;;5108174;28;19915;-73
2022/09/19 11:49:46;;;;;;;;;;;16.60;99.90;;;;;;5108407;28;19915;-73
2022/09/19 11:52:32;;;;;;;;;;;16.90;99.90;;;;;;5112161;28;19911;-72
2022/09/19 11:55:01;;;;;;;;;;;16.90;99.90;;;;;;5051511;28;19929;-72
2022/09/19 11:57:38;;;;;;;;;;;16.40;99.90;;;;;;5034526;28;19912;-72
2022/09/19 12:00:21;;;;;;;;;;;16.00;99.90;;;;;;5042097;28;19940;-72
2022/09/19 12:02:58;;;;;;;;;;;15.60;99.90;;;;;;5052770;28;19921;-75
2022/09/19 12:05:38;;;;;;;;;;;15.20;99.90;;;;;;5051849;28;19952;-73
2022/09/19 12:08:13;;;;;;;;;;;14.80;99.90;;;;;;5048686;28;19916;-73
2022/09/19 12:10:54;;;;;;;;;;;14.60;99.90;;;;;;5050925;28;20254;-73
2022/09/19 12:13:22;;;;;;;;;;;14.50;99.90;;;;;;5050087;28;20705;-73
2022/09/19 12:15:55;;;;;;;;;;;14.40;99.90;;;;;;5052462;28;19912;-73
2022/09/19 12:18:23;;;;;;;;;;;14.30;99.90;;;;;;5051435;28;19916;-73
2022/09/19 12:20:58;;;;;;;;;;;14.40;99.90;;;;;;5033522;28;20227;-74
2022/09/19 12:26:30;;;;;;;;;;;14.60;99.90;;;;;;5052545;28;19987;-72
2022/09/19 12:29:25;;;;;;;;;;;15.00;99.90;;;;;;5050967;28;19939;-74
2022/09/19 12:31:58;;;;;;;;;;;15.40;99.90;;;;;;5031054;28;20429;-74
2022/09/19 12:34:35;;;;;;;;;;;15.70;99.90;;;;;;5104809;28;20006;-72
2022/09/19 12:37:07;;;;;;;;;;;15.50;99.90;;;;;;5112085;28;19916;-73
2022/09/19 12:39:40;;;;;;;;;;;15.20;99.90;;;;;;5101381;28;20029;-73
2022/09/19 12:42:09;;;;;;;;;;;15.20;99.90;;;;;;5098237;28;19923;-73
2022/09/19 12:44:48;;;;;;;;;;;15.00;99.90;;;;;;5095389;28;19916;-74
2022/09/19 12:47:21;;;;;;;;;;;14.90;99.90;;;;;;5105440;27;19927;-74
2022/09/19 12:49:57;;;;;;;;;;;14.90;99.90;;;;;;5107765;28;19916;-73
2022/09/19 12:52:22;;;;;;;;;;;14.90;99.90;;;;;;5102623;28;19931;-72
2022/09/19 12:54:54;;;;;;;;;;;14.90;99.90;;;;;;5108742;28;20223;-72
2022/09/19 12:57:38;;;;;;;;;;;14.90;99.90;;;;;;5094503;28;20208;-73
2022/09/19 13:00:04;;;;;;;;;;;14.90;99.90;;;;;;5111194;27;19920;-72
2022/09/19 13:02:33;;;;;;;;;;;14.90;99.90;;;;;;5142740;27;19912;-72
2022/09/19 13:05:15;;;;;;;;;;;14.90;99.90;;;;;;5112148;28;19916;-73
2022/09/19 13:07:42;;;;;;;;;;;14.90;99.90;;;;;;5107581;28;20203;-72
2022/09/19 13:10:24;;;;;;;;;;;14.90;99.90;;;;;;5106736;28;19916;-71
2022/09/19 13:12:53;;;;;;;;;;;14.90;99.90;;;;;;5110342;28;19999;-72
2022/09/19 13:15:21;;;;;;;;;;;14.90;99.90;;;;;;5103622;28;19915;-73
2022/09/19 13:23:32;;;;;;;;;;;14.90;99.90;;;;;;5102336;28;19965;-72
2022/09/19 13:26:19;;;;;;;;;;;14.80;99.90;;;;;;5103492;28;19912;-71
2022/09/19 13:28:45;;;;;;;;;;;14.80;99.90;;;;;;5107482;28;20360;-73
2022/09/19 13:31:12;;;;;;;;;;;14.80;99.90;;;;;;5101832;28;19920;-72
2022/09/19 13:33:49;;;;;;;;;;;14.70;99.90;;;;;;5107059;28;19930;-74
2022/09/19 13:36:20;;;;;;;;;;;14.80;99.90;;;;;;5113235;28;20361;-72
2022/09/19 13:38:48;;;;;;;;;;;14.90;99.90;;;;;;5105078;28;20272;-71
2022/09/19 13:41:21;;;;;;;;;;;14.90;99.90;;;;;;5107040;28;19916;-73
2022/09/19 13:43:52;;;;;;;;;;;15.00;99.90;;;;;;5095599;28;19923;-71
2022/09/19 13:46:22;;;;;;;;;;;15.10;99.90;;;;;;5100701;28;19908;-72
2022/09/19 13:48:58;;;;;;;;;;;15.30;99.90;;;;;;5100265;28;19960;-71
2022/09/19 13:51:30;;;;;;;;;;;15.30;99.90;;;;;;5101505;28;20202;-72
2022/09/19 13:54:23;;;;;;;;;;;15.50;99.90;;;;;;5113235;28;19934;-72
2022/09/19 13:57:01;;;;;;;;;;;15.70;99.90;;;;;;5094549;28;19920;-72
2022/09/19 13:59:42;;;;;;;;;;;15.90;99.90;;;;;;5114983;28;19915;-73
2022/09/19 14:02:11;;;;;;;;;;;16.20;99.90;;;;;;5110064;28;19919;-73
2022/09/19 14:04:56;;;;;;;;;;;16.30;99.90;;;;;;5105717;28;20210;-72
2022/09/19 14:07:31;;;;;;;;;;;16.20;99.90;;;;;;5096520;28;19947;-74
2022/09/19 14:09:58;;;;;;;;;;;16.10;99.90;;;;;;5096100;28;19916;-74
2022/09/19 14:12:31;;;;;;;;;;;15.70;99.90;;;;;;5099107;28;19912;-74
2022/09/19 14:14:56;;;;;;;;;;;15.00;99.90;;;;;;5101995;28;19916;-72
2022/09/19 14:17:22;;;;;;;;;;;14.60;99.90;;;;;;5127348;27;20525;-72
2022/09/19 14:19:48;;;;;;;;;;;14.50;99.90;;;;;;5108742;28;19908;-71
2022/09/19 14:22:34;;;;;;;;;;;14.40;99.90;;;;;;5095719;28;20007;-71
2022/09/19 14:25:08;;;;;;;;;;;14.50;99.90;;;;;;5110144;28;20261;-75
2022/09/19 14:27:46;;;;;;;;;;;14.60;99.90;;;;;;5100611;28;20210;-75
2022/09/19 14:30:19;;;;;;;;;;;14.70;99.90;;;;;;5106543;28;19915;-71
2022/09/19 14:33:16;;;;;;;;;;;14.70;99.90;;;;;;5104813;28;19916;-71
2022/09/19 14:35:46;;;;;;;;;;;14.80;99.90;;;;;;5100076;28;19955;-74
2022/09/19 14:38:22;;;;;;;;;;;15.10;99.90;;;;;;5104761;28;19916;-72
2022/09/19 14:40:47;;;;;;;;;;;15.30;99.90;;;;;;5100624;28;19919;-73
2022/09/19 14:43:31;;;;;;;;;;;15.30;99.90;;;;;;5100551;28;19916;-73
2022/09/19 14:46:09;;;;;;;;;;;15.30;99.90;;;;;;5098727;28;19922;-73
2022/09/19 14:48:47;;;;;;;;;;;15.30;99.90;;;;;;5101696;28;19908;-71
2022/09/19 14:51:35;;;;;;;;;;;15.40;99.90;;;;;;5102131;28;19954;-72
2022/09/19 14:54:05;;;;;;;;;;;15.40;99.90;;;;;;5093898;28;19920;-72
2022/09/19 14:56:30;;;;;;;;;;;15.40;99.90;;;;;;5093721;28;20257;-73
2022/09/19 14:58:57;;;;;;;;;;;15.20;99.90;;;;;;5093217;28;19919;-72
2022/09/19 15:01:27;;;;;;;;;;;15.20;99.90;;;;;;5096137;28;19916;-72
2022/09/19 15:03:55;;;;;;;;;;;15.20;99.90;;;;;;5109172;28;19926;-72
2022/09/19 15:06:34;;;;;;;;;;;15.30;99.90;;;;;;5107203;28;19961;-73